Time,TemperatureF,DewpointF,PressureIn,WindDirection,WindDirectionDegrees,WindSpeedMPH,WindSpeedGustMPH,Humidity,HourlyPrecipIn,Conditions,Clouds,dailyrainin,SoftwareType,DateUTC
2013-06-30 00:01:00,71.4,68.0,29.67,SW,218,0.0,-999.0,90,-99.99,,,0.00,weatherlink.com 1.10,2013-06-30 04:01:00,
2013-06-30 00:16:00,71.1,68.0,29.67,SSW,209,3.0,-999.0,90,-99.99,,,0.00,weatherlink.com 1.10,2013-06-30 04:16:00,
2013-06-30 00:31:00,70.9,68.0,29.67,SSW,194,0.0,-999.0,91,-99.99,,,0.00,weatherlink.com 1.10,2013-06-30 04:31:00,
2013-06-30 00:46:00,70.7,68.0,29.68,South,186,1.0,-999.0,92,-99.99,,,0.00,weatherlink.com 1.10,2013-06-30 04:46:00,
2013-06-30 01:01:00,70.6,68.0,29.68,SSW,209,4.0,-999.0,92,-99.99,,,0.00,weatherlink.com 1.10,2013-06-30 05:01:00,
2013-06-30 01:16:00,70.4,68.0,29.68,SSW,202,1.0,-999.0,92,-99.99,,,0.00,weatherlink.com 1.10,2013-06-30 05:16:00,
2013-06-30 01:32:00,70.2,68.0,29.68,SW,217,0.0,-999.0,92,-99.99,,,0.00,weatherlink.com 1.10,2013-06-30 05:32:00,
2013-06-30 01:47:00,70.0,68.0,29.68,SW,221,0.0,-999.0,93,-99.99,,,0.00,weatherlink.com 1.10,2013-06-30 05:47:00,
2013-06-30 02:02:00,69.8,68.0,29.68,SW,221,1.0,-999.0,93,-99.99,,,0.00,weatherlink.com 1.10,2013-06-30 06:02:00,
2013-06-30 02:17:00,69.7,68.0,29.68,SW,218,0.0,-999.0,93,-99.99,,,0.00,weatherlink.com 1.10,2013-06-30 06:17:00,
2013-06-30 02:32:00,69.6,68.0,29.68,SW,217,0.0,-999.0,94,-99.99,,,0.00,weatherlink.com 1.10,2013-06-30 06:32:00,
2013-06-30 02:47:00,69.4,68.0,29.68,SW,217,0.0,-999.0,94,-99.99,,,0.00,weatherlink.com 1.10,2013-06-30 06:47:00,
2013-06-30 03:02:00,69.3,68.0,29.69,SSW,200,0.0,-999.0,94,-99.99,,,0.00,weatherlink.com 1.10,2013-06-30 07:02:00,
2013-06-30 03:17:00,69.1,67.0,29.69,SSW,200,0.0,-999.0,94,-99.99,,,0.00,weatherlink.com 1.10,2013-06-30 07:17:00,
2013-06-30 03:32:00,68.6,67.0,29.70,SSW,200,0.0,-999.0,95,-99.99,,,0.00,weatherlink.com 1.10,2013-06-30 07:32:00,
2013-06-30 03:47:00,68.9,68.0,29.69,SSW,201,0.0,-999.0,96,-99.99,,,0.00,weatherlink.com 1.10,2013-06-30 07:47:00,
2013-06-30 04:02:00,68.8,67.0,29.70,SSW,201,0.0,-999.0,95,-99.99,,,0.00,weatherlink.com 1.10,2013-06-30 08:02:00,
2013-06-30 04:17:00,68.8,68.0,29.70,SSW,201,0.0,-999.0,96,-99.99,,,0.00,weatherlink.com 1.10,2013-06-30 08:17:00,
2013-06-30 04:32:00,68.9,68.0,29.70,SSW,202,0.0,-999.0,96,-99.99,,,0.00,weatherlink.com 1.10,2013-06-30 08:32:00,
2013-06-30 04:47:00,68.8,67.0,29.70,SSW,202,0.0,-999.0,95,-99.99,,,0.00,weatherlink.com 1.10,2013-06-30 08:47:00,
2013-06-30 05:02:00,68.6,67.0,29.70,SSW,202,0.0,-999.0,95,-99.99,,,0.00,weatherlink.com 1.10,2013-06-30 09:02:00,
2013-06-30 05:17:00,68.2,67.0,29.71,SSW,202,0.0,-999.0,96,-99.99,,,0.00,weatherlink.com 1.10,2013-06-30 09:17:00,
2013-06-30 05:32:00,67.7,66.0,29.72,SSW,202,0.0,-999.0,95,-99.99,,,0.00,weatherlink.com 1.10,2013-06-30 09:32:00,
2013-06-30 05:47:00,67.6,67.0,29.72,SSW,202,0.0,-999.0,96,-99.99,,,0.00,weatherlink.com 1.10,2013-06-30 09:47:00,
2013-06-30 06:02:00,67.7,67.0,29.73,SSW,202,0.0,-999.0,97,-99.99,,,0.00,weatherlink.com 1.10,2013-06-30 10:02:00,
2013-06-30 06:17:00,68.5,68.0,29.73,SSW,202,1.0,-999.0,97,-99.99,,,0.00,weatherlink.com 1.10,2013-06-30 10:17:00,
2013-06-30 06:32:00,69.0,68.0,29.74,SSW,202,0.0,-999.0,97,-99.99,,,0.00,weatherlink.com 1.10,2013-06-30 10:32:00,
2013-06-30 06:47:00,69.3,69.0,29.75,SSW,202,1.0,-999.0,97,-99.99,,,0.00,weatherlink.com 1.10,2013-06-30 10:47:00,
2013-06-30 07:02:00,69.8,69.0,29.75,South,188,0.0,-999.0,96,-99.99,,,0.00,weatherlink.com 1.10,2013-06-30 11:02:00,
2013-06-30 07:17:00,70.3,69.0,29.76,SE,140,0.0,-999.0,96,-99.99,,,0.00,weatherlink.com 1.10,2013-06-30 11:17:00,
2013-06-30 07:32:00,70.9,70.0,29.77,SE,140,0.0,-999.0,95,-99.99,,,0.00,weatherlink.com 1.10,2013-06-30 11:32:00,
2013-06-30 07:47:00,71.6,70.0,29.77,SSW,196,2.0,-999.0,93,-99.99,,,0.00,weatherlink.com 1.10,2013-06-30 11:47:00,
2013-06-30 08:02:00,72.4,70.0,29.78,SSW,198,0.0,-999.0,92,-99.99,,,0.00,weatherlink.com 1.10,2013-06-30 12:02:00,
2013-06-30 08:17:00,73.3,70.0,29.78,SW,215,0.0,-999.0,90,-99.99,,,0.00,weatherlink.com 1.10,2013-06-30 12:17:00,
2013-06-30 08:32:00,74.2,71.0,29.79,SSW,192,0.0,-999.0,88,-99.99,,,0.00,weatherlink.com 1.10,2013-06-30 12:32:00,
2013-06-30 08:47:00,75.3,71.0,29.78,SSW,211,0.0,-999.0,85,-99.99,,,0.00,weatherlink.com 1.10,2013-06-30 12:47:00,
2013-06-30 09:02:00,76.5,71.0,29.78,SSW,208,0.0,-999.0,83,-99.99,,,0.00,weatherlink.com 1.10,2013-06-30 13:02:00,
2013-06-30 09:18:00,77.5,71.0,29.78,SSW,208,0.0,-999.0,81,-99.99,,,0.00,weatherlink.com 1.10,2013-06-30 13:18:00,
2013-06-30 09:33:00,79.2,71.0,29.78,South,188,1.0,-999.0,77,-99.99,,,0.00,weatherlink.com 1.10,2013-06-30 13:33:00,
2013-06-30 09:48:00,81.5,72.0,29.78,South,188,0.0,-999.0,72,-99.99,,,0.00,weatherlink.com 1.10,2013-06-30 13:48:00,
2013-06-30 10:03:00,83.5,72.0,29.78,SSW,201,0.0,-999.0,69,-99.99,,,0.00,weatherlink.com 1.10,2013-06-30 14:03:00,
2013-06-30 10:18:00,85.2,72.0,29.78,NNW,327,1.0,-999.0,64,-99.99,,,0.00,weatherlink.com 1.10,2013-06-30 14:18:00,
2013-06-30 10:33:00,85.4,72.0,29.78,SW,221,0.0,-999.0,64,-99.99,,,0.00,weatherlink.com 1.10,2013-06-30 14:33:00,
2013-06-30 10:48:00,84.7,71.0,29.78,SW,220,2.0,-999.0,64,-99.99,,,0.00,weatherlink.com 1.10,2013-06-30 14:48:00,
2013-06-30 11:03:00,85.7,72.0,29.79,SW,220,0.0,-999.0,63,-99.99,,,0.00,weatherlink.com 1.10,2013-06-30 15:03:00,
2013-06-30 11:18:00,86.2,73.0,29.79,South,170,2.0,-999.0,64,-99.99,,,0.00,weatherlink.com 1.10,2013-06-30 15:18:00,
2013-06-30 11:33:00,86.0,71.0,29.79,SW,217,1.0,-999.0,62,-99.99,,,0.00,weatherlink.com 1.10,2013-06-30 15:33:00,
2013-06-30 11:48:00,87.0,72.0,29.79,SW,217,3.0,-999.0,62,-99.99,,,0.00,weatherlink.com 1.10,2013-06-30 15:48:00,
2013-06-30 12:03:00,88.0,72.0,29.78,SSW,206,0.0,-999.0,60,-99.99,,,0.00,weatherlink.com 1.10,2013-06-30 16:03:00,
2013-06-30 12:18:00,88.0,70.0,29.79,SSW,207,1.0,-999.0,56,-99.99,,,0.00,weatherlink.com 1.10,2013-06-30 16:18:00,
2013-06-30 12:33:00,89.2,71.0,29.79,SW,227,0.0,-999.0,56,-99.99,,,0.00,weatherlink.com 1.10,2013-06-30 16:33:00,
2013-06-30 12:48:00,89.7,71.0,29.78,SSW,213,2.0,-999.0,55,-99.99,,,0.00,weatherlink.com 1.10,2013-06-30 16:48:00,
2013-06-30 13:03:00,88.0,72.0,29.78,SSW,203,3.0,-999.0,59,-99.99,,,0.00,weatherlink.com 1.10,2013-06-30 17:03:00,
2013-06-30 13:18:00,87.9,72.0,29.79,SSW,193,1.0,-999.0,59,-99.99,,,0.00,weatherlink.com 1.10,2013-06-30 17:18:00,
2013-06-30 13:33:00,87.3,72.0,29.78,SSW,209,0.0,-999.0,60,-99.99,,,0.00,weatherlink.com 1.10,2013-06-30 17:33:00,
2013-06-30 13:48:00,87.5,70.0,29.78,SSW,192,0.0,-999.0,56,-99.99,,,0.00,weatherlink.com 1.10,2013-06-30 17:48:00,
2013-06-30 14:03:00,87.1,71.0,29.78,SSW,207,2.0,-999.0,59,-99.99,,,0.00,weatherlink.com 1.10,2013-06-30 18:03:00,
2013-06-30 14:18:00,86.8,72.0,29.79,SSE,159,0.0,-999.0,61,-99.99,,,0.00,weatherlink.com 1.10,2013-06-30 18:18:00,
2013-06-30 14:33:00,88.2,71.0,29.79,SW,227,1.0,-999.0,57,-99.99,,,0.00,weatherlink.com 1.10,2013-06-30 18:33:00,
2013-06-30 14:48:00,88.4,71.0,29.79,SW,217,2.0,-999.0,56,-99.99,,,0.00,weatherlink.com 1.10,2013-06-30 18:48:00,
2013-06-30 15:03:00,88.3,73.0,29.79,SSW,210,0.0,-999.0,61,-99.99,,,0.00,weatherlink.com 1.10,2013-06-30 19:03:00,
2013-06-30 15:18:00,87.9,72.0,29.79,SSW,203,1.0,-999.0,59,-99.99,,,0.00,weatherlink.com 1.10,2013-06-30 19:18:00,
2013-06-30 15:33:00,86.5,70.0,29.79,SSW,207,0.0,-999.0,59,-99.99,,,0.00,weatherlink.com 1.10,2013-06-30 19:33:00,
2013-06-30 15:48:00,86.0,72.0,29.79,South,185,0.0,-999.0,64,-99.99,,,0.00,weatherlink.com 1.10,2013-06-30 19:48:00,
2013-06-30 16:03:00,85.7,73.0,29.79,SW,234,1.0,-999.0,65,-99.99,,,0.00,weatherlink.com 1.10,2013-06-30 20:03:00,
2013-06-30 16:18:00,84.6,73.0,29.80,SW,218,0.0,-999.0,68,-99.99,,,0.00,weatherlink.com 1.10,2013-06-30 20:18:00,
2013-06-30 16:33:00,83.9,74.0,29.80,SW,218,4.0,-999.0,71,-99.99,,,0.00,weatherlink.com 1.10,2013-06-30 20:33:00,
2013-06-30 16:48:00,83.5,74.0,29.80,SSW,192,3.0,-999.0,72,-99.99,,,0.00,weatherlink.com 1.10,2013-06-30 20:48:00,
2013-06-30 17:03:00,83.0,73.0,29.80,South,188,7.0,-999.0,72,-99.99,,,0.00,weatherlink.com 1.10,2013-06-30 21:03:00,
2013-06-30 17:18:00,82.9,73.0,29.81,SSW,208,4.0,-999.0,71,-99.99,,,0.00,weatherlink.com 1.10,2013-06-30 21:18:00,
2013-06-30 17:34:00,82.1,72.0,29.81,SSW,205,3.0,-999.0,72,-99.99,,,0.00,weatherlink.com 1.10,2013-06-30 21:34:00,
2013-06-30 17:49:00,82.5,73.0,29.82,WSW,239,1.0,-999.0,72,-99.99,,,0.00,weatherlink.com 1.10,2013-06-30 21:49:00,
2013-06-30 18:04:00,82.1,73.0,29.83,SSE,160,1.0,-999.0,73,-99.99,,,0.00,weatherlink.com 1.10,2013-06-30 22:04:00,
2013-06-30 18:19:00,81.9,72.0,29.83,SSW,209,3.0,-999.0,71,-99.99,,,0.00,weatherlink.com 1.10,2013-06-30 22:19:00,
2013-06-30 18:34:00,80.7,71.0,29.84,SW,220,2.0,-999.0,72,-99.99,,,0.00,weatherlink.com 1.10,2013-06-30 22:34:00,
2013-06-30 18:49:00,80.3,71.0,29.84,South,190,1.0,-999.0,74,-99.99,,,0.00,weatherlink.com 1.10,2013-06-30 22:49:00,
2013-06-30 19:04:00,79.7,71.0,29.85,SSW,202,0.0,-999.0,75,-99.99,,,0.00,weatherlink.com 1.10,2013-06-30 23:04:00,
2013-06-30 19:19:00,79.3,71.0,29.86,WSW,238,0.0,-999.0,76,-99.99,,,0.00,weatherlink.com 1.10,2013-06-30 23:19:00,
2013-06-30 19:34:00,79.0,71.0,29.86,WSW,237,0.0,-999.0,77,-99.99,,,0.00,weatherlink.com 1.10,2013-06-30 23:34:00,
2013-06-30 19:49:00,78.5,71.0,29.86,SW,236,0.0,-999.0,78,-99.99,,,0.00,weatherlink.com 1.10,2013-06-30 23:49:00,
2013-06-30 20:04:00,78.0,71.0,29.85,SSE,168,0.0,-999.0,79,-99.99,,,0.00,weatherlink.com 1.10,2013-07-01 00:04:00,
2013-06-30 20:19:00,77.4,71.0,29.86,South,190,0.0,-999.0,80,-99.99,,,0.00,weatherlink.com 1.10,2013-07-01 00:19:00,
2013-06-30 20:34:00,76.6,70.0,29.85,SW,224,1.0,-999.0,80,-99.99,,,0.00,weatherlink.com 1.10,2013-07-01 00:34:00,
2013-06-30 20:49:00,76.0,70.0,29.86,SW,216,0.0,-999.0,82,-99.99,,,0.00,weatherlink.com 1.10,2013-07-01 00:49:00,
2013-06-30 21:04:00,75.6,70.0,29.86,SSW,202,1.0,-999.0,83,-99.99,,,0.00,weatherlink.com 1.10,2013-07-01 01:04:00,
2013-06-30 21:19:00,75.1,70.0,29.86,SSW,211,2.0,-999.0,84,-99.99,,,0.00,weatherlink.com 1.10,2013-07-01 01:19:00,
2013-06-30 21:34:00,74.8,70.0,29.87,SSW,212,0.0,-999.0,85,-99.99,,,0.00,weatherlink.com 1.10,2013-07-01 01:34:00,
2013-06-30 21:49:00,74.5,70.0,29.87,SSW,212,0.0,-999.0,86,-99.99,,,0.00,weatherlink.com 1.10,2013-07-01 01:49:00,
2013-06-30 22:04:00,74.3,70.0,29.88,SSW,209,0.0,-999.0,87,-99.99,,,0.00,weatherlink.com 1.10,2013-07-01 02:04:00,
2013-06-30 22:19:00,74.4,70.0,29.88,SW,218,0.0,-999.0,87,-99.99,,,0.00,weatherlink.com 1.10,2013-07-01 02:19:00,
2013-06-30 22:34:00,74.4,70.0,29.88,SW,219,2.0,-999.0,87,-99.99,,,0.00,weatherlink.com 1.10,2013-07-01 02:34:00,
2013-06-30 22:49:00,74.3,71.0,29.88,SW,221,0.0,-999.0,88,-99.99,,,0.00,weatherlink.com 1.10,2013-07-01 02:49:00,
2013-06-30 23:04:00,74.2,70.0,29.88,SSE,151,0.0,-999.0,87,-99.99,,,0.00,weatherlink.com 1.10,2013-07-01 03:04:00,
2013-06-30 23:19:00,74.2,70.0,29.88,SW,215,2.0,-999.0,87,-99.99,,,0.00,weatherlink.com 1.10,2013-07-01 03:19:00,
2013-06-30 23:34:00,74.2,70.0,29.88,SSW,200,0.0,-999.0,87,-99.99,,,0.00,weatherlink.com 1.10,2013-07-01 03:34:00,
2013-06-30 23:49:00,74.2,70.0,29.89,SW,220,0.0,-999.0,87,-99.99,,,0.00,weatherlink.com 1.10,2013-07-01 03:49:00,